Time;durP1;ratioP1;P1;durP2;ratioP2;P2;SDS_P1;SDS_P2;PMS_P1;PMS_P2;Temp;Humidity;BMP_temperature;BMP_pressure;BME280_temperature;BME280_humidity;BME280_pressure;Samples;Min_cycle;Max_cycle;Signal;HPM_P1;HPM_P2
2022/06/19 00:00:15;;;;;;;6.37;3.28;;;;;;;25.66;43.35;98441.59;5391558;26;20110;-81
2022/06/19 00:02:43;;;;;;;7.37;3.20;;;;;;;24.89;45.22;98434.16;5391496;26;20052;-81
2022/06/19 00:05:11;;;;;;;6.10;3.30;;;;;;;24.50;46.17;98442.22;5390999;26;20150;-81
2022/06/19 00:07:38;;;;;;;8.18;3.25;;;;;;;24.30;46.82;98440.56;5371480;26;20074;-81
2022/06/19 00:10:07;;;;;;;8.48;3.30;;;;;;;24.85;45.52;98438.03;5391071;26;20107;-82
2022/06/19 00:12:34;;;;;;;6.62;3.03;;;;;;;24.65;45.70;98441.72;5391479;26;20048;-81
2022/06/19 00:15:01;;;;;;;6.20;3.17;;;;;;;24.61;45.84;98445.66;5391370;26;20068;-81
2022/06/19 00:17:28;;;;;;;6.87;3.10;;;;;;;24.39;46.48;98445.00;5390760;26;20115;-81
2022/06/19 00:19:55;;;;;;;7.25;3.12;;;;;;;23.90;47.82;98446.84;5391429;26;20453;-81
2022/06/19 00:22:22;;;;;;;6.00;3.17;;;;;;;24.26;47.04;98436.56;5371340;26;20449;-81
2022/06/19 00:24:49;;;;;;;6.45;3.15;;;;;;;24.41;46.36;98436.97;5370938;26;20102;-81
2022/06/19 00:27:16;;;;;;;7.10;3.03;;;;;;;23.86;47.53;98439.37;5391477;26;20696;-81
2022/06/19 00:29:43;;;;;;;6.72;3.10;;;;;;;23.86;47.71;98431.47;5391281;26;20399;-82
2022/06/19 00:32:10;;;;;;;6.25;2.92;;;;;;;23.63;48.46;98430.94;5391056;26;20055;-82
2022/06/19 00:34:37;;;;;;;6.30;3.17;;;;;;;23.58;48.50;98419.94;5371238;26;20110;-82
2022/06/19 00:37:05;;;;;;;6.82;3.30;;;;;;;23.72;48.30;98424.00;5391208;26;20119;-82
2022/06/19 00:39:39;;;;;;;9.05;3.22;;;;;;;23.45;48.94;98417.56;5390833;26;20056;-81
2022/06/19 00:42:08;;;;;;;9.63;3.50;;;;;;;22.95;50.32;98419.41;5391377;26;20363;-81
2022/06/19 00:44:35;;;;;;;7.82;3.37;;;;;;;22.67;51.13;98418.34;5391177;26;20562;-81
2022/06/19 00:47:11;;;;;;;9.75;3.47;;;;;;;22.81;50.79;98407.44;5391016;26;20162;-81
2022/06/19 00:49:47;;;;;;;7.72;3.17;;;;;;;22.14;53.21;98419.31;5391171;26;20063;-81
2022/06/19 00:52:19;;;;;;;8.53;3.47;;;;;;;22.84;51.19;98416.88;5370983;26;20110;-81
2022/06/19 00:54:54;;;;;;;7.95;3.67;;;;;;;22.84;51.03;98414.25;5391267;26;20106;-81
2022/06/19 00:57:22;;;;;;;7.60;3.58;;;;;;;23.42;49.36;98409.97;5371071;26;20059;-81
2022/06/19 00:59:59;;;;;;;7.12;3.33;;;;;;;22.77;51.22;98416.56;5370751;26;20119;-82
2022/06/19 01:02:26;;;;;;;6.72;3.33;;;;;;;22.93;50.74;98416.09;5391454;26;20111;-81
2022/06/19 01:04:55;;;;;;;9.55;3.62;;;;;;;23.50;48.83;98410.09;5371097;26;20048;-81
2022/06/19 01:07:23;;;;;;;7.80;3.60;;;;;;;22.85;50.59;98413.28;5390648;26;20139;-81
2022/06/19 01:09:51;;;;;;;7.87;3.70;;;;;;;23.46;49.01;98416.59;5391113;26;20118;-81
2022/06/19 01:12:19;;;;;;;8.13;3.53;;;;;;;23.69;48.26;98421.63;5391244;26;20067;-81
2022/06/19 01:14:47;;;;;;;7.78;3.28;;;;;;;23.87;47.65;98425.22;5370602;26;20099;-81
2022/06/19 01:17:15;;;;;;;9.18;3.55;;;;;;;23.01;49.96;98411.00;5391048;26;20062;-81
2022/06/19 01:19:44;;;;;;;8.50;3.40;;;;;;;22.84;50.55;98409.81;5371113;26;20125;-81
2022/06/19 01:22:19;;;;;;;9.52;3.40;;;;;;;22.26;52.20;98419.25;5370872;26;20062;-82
2022/06/19 01:25:06;;;;;;;7.07;3.37;;;;;;;22.73;51.25;98413.34;5391098;26;20657;-81
2022/06/19 01:30:23;;;;;;;7.87;3.35;;;;;;;22.67;51.39;98397.28;5374027;26;20519;-82
2022/06/19 01:32:50;;;;;;;7.47;3.78;;;;;;;22.43;52.49;98397.59;5391119;26;20103;-82
2022/06/19 01:35:19;;;;;;;8.55;3.50;;;;;;;22.52;51.98;98394.16;5390492;26;20119;-81
2022/06/19 01:37:47;;;;;;;9.40;3.70;;;;;;;22.63;52.14;98395.88;5370687;26;20408;-81
2022/06/19 01:40:40;;;;;;;7.80;3.62;;;;;;;22.42;52.98;98395.91;5371060;26;20165;-81
2022/06/19 01:43:09;;;;;;;6.80;3.20;;;;;;;22.28;53.51;98393.66;5385931;26;20066;-81
2022/06/19 01:45:41;;;;;;;7.53;3.33;;;;;;;23.23;50.50;98389.69;5390931;26;20060;-80
2022/06/19 01:48:08;;;;;;;6.60;3.42;;;;;;;22.90;51.18;98387.44;5390641;26;20075;-81
2022/06/19 01:50:35;;;;;;;5.95;3.20;;;;;;;22.96;51.03;98394.75;5391085;26;20090;-80
2022/06/19 01:53:11;;;;;;;7.57;3.40;;;;;;;23.42;49.57;98388.06;5390803;26;20465;-81
2022/06/19 01:55:38;;;;;;;8.95;3.30;;;;;;;23.42;49.64;98383.63;5370108;26;20065;-81
2022/06/19 01:58:06;;;;;;;5.62;3.20;;;;;;;23.27;49.85;98384.97;5390574;26;20115;-81
2022/06/19 02:00:34;;;;;;;6.95;3.30;;;;;;;23.17;49.80;98371.81;5370920;26;20146;-81
2022/06/19 02:03:18;;;;;;;6.28;3.20;;;;;;;23.34;49.59;98372.94;5371636;26;20051;-81
2022/06/19 02:05:45;;;;;;;6.47;3.10;;;;;;;23.19;49.69;98372.53;5390846;26;20561;-81
2022/06/19 02:08:14;;;;;;;6.43;3.12;;;;;;;22.98;50.30;98359.47;5370804;26;20127;-81
2022/06/19 02:10:42;;;;;;;6.93;3.25;;;;;;;22.98;50.33;98364.75;5370627;26;20068;-82
2022/06/19 02:13:10;;;;;;;7.05;3.33;;;;;;;22.52;51.47;98362.63;5370744;26;20115;-81
2022/06/19 02:15:38;;;;;;;6.65;3.33;;;;;;;22.74;50.72;98362.41;5370819;26;20044;-81
2022/06/19 02:18:15;;;;;;;7.87;3.40;;;;;;;23.17;49.00;98353.38;5390176;26;20076;-81
2022/06/19 02:20:42;;;;;;;7.05;3.58;;;;;;;22.14;51.58;98353.63;5370765;26;20074;-81
2022/06/19 02:23:09;;;;;;;6.37;3.10;;;;;;;21.66;52.98;98359.34;5390204;26;20107;-82
2022/06/19 02:25:39;;;;;;;8.13;3.50;;;;;;;21.72;53.21;98358.03;5390638;26;20448;-82
2022/06/19 02:28:08;;;;;;;7.53;3.40;;;;;;;22.50;50.68;98356.66;5370575;26;20504;-81
2022/06/19 02:30:35;;;;;;;9.20;3.47;;;;;;;22.08;51.70;98369.06;5371473;26;20063;-81
2022/06/19 02:33:03;;;;;;;6.47;3.30;;;;;;;21.22;54.12;98356.91;5391785;26;20556;-81
2022/06/19 02:35:30;;;;;;;7.53;4.15;;;;;;;20.11;57.72;98359.53;5371649;26;20048;-81
2022/06/19 02:37:57;;;;;;;7.72;3.50;;;;;;;20.30;57.74;98356.28;5391280;26;20067;-81
2022/06/19 02:40:36;;;;;;;8.45;4.20;;;;;;;20.30;57.31;98364.16;5391791;26;20119;-82
2022/06/19 02:43:17;;;;;;;9.80;3.90;;;;;;;20.86;55.60;98355.47;5391872;26;20106;-81
2022/06/19 02:45:44;;;;;;;9.70;3.90;;;;;;;20.50;56.68;98358.22;5371268;26;20064;-81
2022/06/19 02:48:22;;;;;;;10.05;3.78;;;;;;;20.62;56.23;98364.28;5391501;26;20059;-81
2022/06/19 02:50:50;;;;;;;7.60;3.83;;;;;;;20.69;55.90;98365.50;5391695;26;20112;-81
2022/06/19 02:53:18;;;;;;;8.35;3.80;;;;;;;21.09;54.51;98363.16;5391285;26;20114;-82
2022/06/19 02:55:46;;;;;;;7.12;3.45;;;;;;;21.08;54.40;98364.09;5391337;26;20047;-81
2022/06/19 02:58:14;;;;;;;8.02;3.45;;;;;;;20.49;56.11;98356.56;5391114;26;20402;-81
2022/06/19 03:00:41;;;;;;;9.80;3.40;;;;;;;20.57;56.92;98358.59;5391684;26;20115;-81
2022/06/19 03:03:16;;;;;;;6.65;3.30;;;;;;;20.79;56.00;98352.50;5391696;26;20063;-82
2022/06/19 03:05:43;;;;;;;6.95;3.40;;;;;;;21.41;53.80;98348.41;5391350;26;20047;-82
2022/06/19 03:08:10;;;;;;;8.77;3.45;;;;;;;21.87;52.04;98351.47;5391585;26;20067;-81
2022/06/19 03:10:37;;;;;;;9.65;3.47;;;;;;;21.25;53.86;98340.91;5391616;26;20127;-81
2022/06/19 03:13:05;;;;;;;9.02;3.58;;;;;;;20.98;55.15;98344.81;5391197;26;20111;-81
2022/06/19 03:15:32;;;;;;;6.90;3.50;;;;;;;21.93;51.87;98342.25;5391556;26;20059;-81
2022/06/19 03:17:59;;;;;;;7.22;3.10;;;;;;;21.54;52.61;98342.00;5391438;26;20071;-81
2022/06/19 03:20:26;;;;;;;7.32;3.20;;;;;;;21.90;51.85;98338.13;5391419;26;20056;-81
2022/06/19 03:22:54;;;;;;;6.72;3.20;;;;;;;21.64;52.50;98340.28;5371638;26;20110;-81
2022/06/19 03:25:22;;;;;;;7.50;3.33;;;;;;;21.99;51.67;98348.78;5391575;26;20055;-82
2022/06/19 03:27:49;;;;;;;8.10;3.00;;;;;;;22.81;49.07;98344.31;5391048;26;20577;-81
2022/06/19 03:30:18;;;;;;;6.03;2.90;;;;;;;22.61;49.46;98348.69;5391712;26;20428;-81
2022/06/19 03:32:45;;;;;;;6.43;3.30;;;;;;;22.78;48.61;98353.31;5391591;26;20119;-81
2022/06/19 03:35:13;;;;;;;7.20;3.40;;;;;;;22.58;49.51;98350.75;5391171;26;20078;-81
2022/06/19 03:37:41;;;;;;;6.60;3.20;;;;;;;22.67;49.29;98348.16;5391214;26;20115;-81
2022/06/19 03:40:09;;;;;;;8.27;3.33;;;;;;;23.16;48.09;98343.81;5391134;26;20072;-81
2022/06/19 03:42:36;;;;;;;6.12;3.00;;;;;;;23.83;46.13;98356.19;5391103;26;20442;-82
2022/06/19 03:45:05;;;;;;;6.20;3.20;;;;;;;23.68;46.92;98349.66;5391442;26;20065;-81
2022/06/19 03:47:32;;;;;;;9.68;2.97;;;;;;;23.97;46.24;98347.00;5391010;26;20091;-81
2022/06/19 03:50:01;;;;;;;5.65;2.78;;;;;;;24.30;45.30;98344.81;5391467;26;20064;-81
2022/06/19 03:52:28;;;;;;;5.87;2.87;;;;;;;24.97;43.95;98352.41;5391352;26;20048;-82
2022/06/19 03:54:55;;;;;;;6.35;3.05;;;;;;;25.56;42.18;98345.72;5391047;26;20126;-81
2022/06/19 03:57:22;;;;;;;6.22;2.78;;;;;;;26.33;40.34;98351.22;5391210;26;20064;-81
2022/06/19 03:59:50;;;;;;;6.70;2.92;;;;;;;26.77;39.43;98352.75;5391460;26;20060;-81
2022/06/19 04:02:18;;;;;;;5.05;2.80;;;;;;;27.36;38.07;98345.63;5391079;26;20102;-81
2022/06/19 04:04:45;;;;;;;6.43;2.67;;;;;;;27.71;37.47;98353.44;5391466;26;20516;-82
2022/06/19 04:07:14;;;;;;;5.18;2.80;;;;;;;28.07;36.56;98343.28;5391479;26;20079;-81
2022/06/19 04:09:43;;;;;;;6.85;2.50;;;;;;;28.59;35.93;98348.13;5371105;26;20414;-81
2022/06/19 04:12:10;;;;;;;5.07;2.50;;;;;;;28.99;34.60;98337.34;5391546;26;20078;-81
2022/06/19 04:14:37;;;;;;;4.90;2.28;;;;;;;29.53;33.58;98332.00;5391300;26;20055;-82
2022/06/19 04:17:05;;;;;;;5.95;2.70;;;;;;;29.81;33.39;98332.25;5390924;26;20070;-82
2022/06/19 04:19:32;;;;;;;3.75;2.30;;;;;;;30.54;32.12;98328.00;5371329;26;20386;-81
2022/06/19 04:21:59;;;;;;;6.53;2.97;;;;;;;30.83;31.71;98323.66;5371495;26;20398;-82
2022/06/19 04:24:26;;;;;;;5.55;2.92;;;;;;;31.24;31.23;98330.06;5390992;26;20094;-81
2022/06/19 04:26:53;;;;;;;7.43;2.85;;;;;;;31.91;30.23;98336.84;5391131;26;20056;-82
2022/06/19 04:29:21;;;;;;;4.20;2.47;;;;;;;32.46;29.14;98340.50;5391238;26;20060;-81
2022/06/19 04:31:49;;;;;;;4.25;2.40;;;;;;;32.80;28.22;98347.63;5391380;26;20062;-82
2022/06/19 04:34:16;;;;;;;5.47;2.53;;;;;;;33.09;27.25;98343.84;5391363;26;20054;-82
2022/06/19 04:36:43;;;;;;;4.07;2.35;;;;;;;33.43;27.08;98342.88;5390850;26;20122;-81
2022/06/19 04:39:10;;;;;;;4.50;2.30;;;;;;;33.76;27.21;98345.56;5391221;26;20083;-82
2022/06/19 04:41:40;;;;;;;6.43;2.60;;;;;;;34.25;26.70;98346.16;5391443;26;20316;-81
2022/06/19 04:44:11;;;;;;;5.50;2.30;;;;;;;34.40;26.43;98339.56;5390950;26;20115;-82
2022/06/19 04:46:39;;;;;;;3.92;2.20;;;;;;;35.01;25.42;98349.84;5391364;26;20395;-82
2022/06/19 04:49:06;;;;;;;4.05;2.30;;;;;;;35.43;24.87;98349.41;5394146;26;20100;-82
2022/06/19 04:51:38;;;;;;;5.68;2.45;;;;;;;35.60;24.68;98351.31;5386685;26;156260;-82
2022/06/19 04:54:05;;;;;;;4.72;2.40;;;;;;;36.16;24.03;98355.84;5391347;26;20605;-82
2022/06/19 04:56:33;;;;;;;4.80;2.40;;;;;;;36.80;23.19;98353.69;5390923;26;20063;-82
2022/06/19 04:59:00;;;;;;;5.57;2.60;;;;;;;37.39;22.63;98359.34;5390580;26;20052;-82
2022/06/19 05:01:32;;;;;;;5.65;2.30;;;;;;;37.99;22.17;98353.84;5391399;26;20051;-82
2022/06/19 05:04:02;;;;;;;4.40;2.40;;;;;;;38.25;21.97;98357.94;5391319;26;20416;-82
2022/06/19 05:06:29;;;;;;;4.45;2.40;;;;;;;38.30;22.18;98350.78;5390621;26;20096;-82
2022/06/19 05:08:57;;;;;;;5.87;2.72;;;;;;;38.66;22.02;98348.84;5390992;26;20111;-82
2022/06/19 05:11:27;;;;;;;4.32;2.40;;;;;;;38.82;21.94;98353.53;5391321;26;20102;-82
2022/06/19 05:13:54;;;;;;;4.57;2.90;;;;;;;39.18;21.96;98354.22;5391228;26;20058;-82
2022/06/19 05:16:22;;;;;;;6.40;2.80;;;;;;;39.54;21.79;98351.03;5391098;26;20121;-81
2022/06/19 05:18:51;;;;;;;4.80;2.53;;;;;;;39.83;21.57;98354.53;5390562;26;20074;-82
2022/06/19 05:21:21;;;;;;;5.55;2.67;;;;;;;40.13;21.46;98356.06;5371567;26;20047;-82
2022/06/19 05:23:49;;;;;;;4.53;2.70;;;;;;;40.62;21.17;98367.00;5391164;26;20111;-82
2022/06/19 05:26:20;;;;;;;7.40;2.60;;;;;;;40.83;20.63;98358.06;5390583;26;20068;-82
2022/06/19 05:28:48;;;;;;;4.32;2.50;;;;;;;40.99;20.92;98354.50;5391017;26;20083;-82
2022/06/19 05:31:16;;;;;;;3.87;2.42;;;;;;;40.90;20.62;98357.91;5391211;26;20043;-82
2022/06/19 05:33:44;;;;;;;5.75;2.50;;;;;;;40.77;20.83;98361.81;5390777;26;20048;-81
2022/06/19 05:36:11;;;;;;;3.67;2.45;;;;;;;41.15;20.53;98349.22;5370984;26;20063;-82
2022/06/19 05:38:39;;;;;;;3.45;2.20;;;;;;;38.44;21.05;98346.78;5390771;26;20124;-81
2022/06/19 05:41:06;;;;;;;5.57;2.40;;;;;;;37.60;22.62;98350.72;5390612;26;20059;-81
2022/06/19 05:43:34;;;;;;;4.40;2.28;;;;;;;37.79;21.62;98341.53;5391058;26;20402;-81
2022/06/19 05:46:04;;;;;;;3.47;2.08;;;;;;;36.65;23.52;98348.69;5390897;26;20535;-81
2022/06/19 05:48:32;;;;;;;5.53;2.80;;;;;;;36.19;23.25;98341.94;5390575;26;20036;-81
2022/06/19 05:51:06;;;;;;;5.18;2.40;;;;;;;35.68;24.12;98334.13;5391103;26;20401;-81
2022/06/19 05:53:36;;;;;;;3.72;2.10;;;;;;;34.97;24.36;98327.16;5371025;26;20398;-81
2022/06/19 05:56:03;;;;;;;6.55;2.30;;;;;;;34.79;25.29;98327.03;5337063;26;20096;-82
2022/06/19 05:58:31;;;;;;;4.57;2.10;;;;;;;33.13;26.71;98331.69;5321782;27;20061;-81
2022/06/19 06:00:58;;;;;;;5.10;2.40;;;;;;;33.74;25.92;98330.75;5321897;27;20395;-81
2022/06/19 06:03:26;;;;;;;6.72;2.30;;;;;;;33.57;26.23;98338.38;5323806;26;20116;-82
2022/06/19 06:05:53;;;;;;;4.72;2.50;;;;;;;34.01;25.54;98344.97;5324550;26;20113;-81
2022/06/19 06:08:20;;;;;;;4.10;2.25;;;;;;;33.59;26.47;98326.41;5324082;27;20052;-81
2022/06/19 06:10:49;;;;;;;3.90;2.30;;;;;;;32.83;26.91;98349.09;5324773;26;20102;-81
2022/06/19 06:13:17;;;;;;;5.35;2.45;;;;;;;33.24;26.58;98347.16;5324626;26;20055;-81
2022/06/19 06:15:48;;;;;;;4.62;2.15;;;;;;;33.12;27.81;98353.28;5324095;26;20065;-81
2022/06/19 06:18:16;;;;;;;3.92;2.30;;;;;;;32.01;28.71;98355.16;5324561;26;20061;-82
2022/06/19 06:20:43;;;;;;;4.35;2.22;;;;;;;32.02;28.00;98359.50;5323242;27;20071;-81
2022/06/19 06:23:10;;;;;;;4.32;2.22;;;;;;;31.96;28.80;98353.06;5324176;26;20128;-81
2022/06/19 06:25:40;;;;;;;4.35;2.20;;;;;;;31.88;28.16;98361.22;5323405;26;20097;-82
2022/06/19 06:28:13;;;;;;;4.07;2.10;;;;;;;31.72;28.66;98356.16;5324543;26;20064;-81
2022/06/19 06:30:40;;;;;;;4.85;2.37;;;;;;;31.50;29.75;98360.69;5324101;26;20059;-81
2022/06/19 06:33:07;;;;;;;5.75;2.42;;;;;;;31.55;30.86;98358.25;5324577;27;20048;-82
2022/06/19 06:35:34;;;;;;;4.85;2.30;;;;;;;31.84;28.72;98357.31;5324437;26;20491;-81
2022/06/19 06:38:01;;;;;;;4.28;2.10;;;;;;;31.45;29.41;98360.41;5324014;27;20317;-81
2022/06/19 06:40:28;;;;;;;6.65;2.42;;;;;;;31.49;29.67;98367.03;5324661;26;20045;-81
2022/06/19 06:42:55;;;;;;;5.37;2.25;;;;;;;31.33;30.74;98368.91;5324139;27;20363;-81
2022/06/19 06:45:22;;;;;;;5.18;2.30;;;;;;;31.27;31.04;98375.03;5324497;26;20404;-81
2022/06/19 06:47:50;;;;;;;4.78;2.35;;;;;;;30.21;31.15;98370.97;5324368;27;20061;-81
2022/06/19 06:50:17;;;;;;;4.18;2.50;;;;;;;30.46;31.06;98366.19;5324136;26;20079;-81
2022/06/19 06:52:44;;;;;;;4.35;2.12;;;;;;;30.14;31.29;98369.22;5324634;26;20093;-82
2022/06/19 06:55:12;;;;;;;5.12;2.33;;;;;;;30.24;30.14;98367.12;5328504;26;20102;-81
2022/06/19 06:57:39;;;;;;;5.47;2.30;;;;;;;30.49;30.78;98365.81;5346186;26;20111;-81
2022/06/19 07:00:09;;;;;;;4.47;2.47;;;;;;;30.38;30.81;98360.13;5346548;26;20047;-81
2022/06/19 07:02:36;;;;;;;6.82;2.33;;;;;;;30.28;30.50;98347.09;5346778;26;20054;-81
2022/06/19 07:05:03;;;;;;;3.58;2.10;;;;;;;29.59;31.81;98352.56;5349569;26;20152;-81
2022/06/19 07:07:30;;;;;;;4.05;2.10;;;;;;;29.54;32.53;98349.59;5414162;26;20131;-81
2022/06/19 07:09:57;;;;;;;4.62;2.40;;;;;;;30.00;32.30;98356.69;5414452;26;20047;-81
2022/06/19 07:12:24;;;;;;;5.60;2.37;;;;;;;31.18;29.74;98352.13;5414120;26;20135;-81
2022/06/19 07:14:51;;;;;;;3.62;2.25;;;;;;;31.47;30.81;98356.53;5413651;26;20119;-81
2022/06/19 07:17:18;;;;;;;4.18;2.28;;;;;;;31.83;29.60;98361.00;5391743;26;20111;-81
2022/06/19 07:19:46;;;;;;;6.87;2.28;;;;;;;31.44;29.99;98358.75;5391002;26;20059;-81
2022/06/19 07:22:15;;;;;;;4.57;2.40;;;;;;;30.86;29.48;98356.09;5391794;26;20099;-82
2022/06/19 07:24:43;;;;;;;7.28;2.25;;;;;;;30.93;29.20;98353.47;5391756;26;20442;-81
2022/06/19 07:27:10;;;;;;;5.28;2.40;;;;;;;30.50;29.90;98356.81;5395068;26;20115;-81
2022/06/19 07:29:45;;;;;;;4.65;2.30;;;;;;;30.31;30.00;98353.91;5394935;26;20535;-82
2022/06/19 07:32:13;;;;;;;7.80;2.47;;;;;;;30.10;29.48;98350.13;5391473;26;20118;-82
2022/06/19 07:34:41;;;;;;;4.28;2.37;;;;;;;29.78;30.72;98353.09;5391624;26;20064;-82
2022/06/19 07:37:14;;;;;;;5.43;2.45;;;;;;;29.92;30.01;98353.09;5391612;26;20056;-81
2022/06/19 07:39:41;;;;;;;6.37;2.12;;;;;;;30.33;30.11;98349.22;5390986;26;20115;-81
2022/06/19 07:42:09;;;;;;;4.28;2.40;;;;;;;30.01;30.54;98347.72;5391647;26;20426;-81
2022/06/19 07:44:37;;;;;;;4.55;2.40;;;;;;;30.04;30.88;98348.16;5391494;26;20056;-81
2022/06/19 07:50:11;;;;;;;5.93;2.33;;;;;;;30.37;29.64;98348.66;5374586;26;20027;-81
2022/06/19 07:52:39;;;;;;;5.20;2.50;;;;;;;30.82;29.25;98341.47;5391712;26;20430;-81
2022/06/19 07:55:08;;;;;;;4.82;2.40;;;;;;;30.72;31.18;98347.09;5390875;26;20070;-81
2022/06/19 07:57:36;;;;;;;4.87;2.67;;;;;;;30.94;30.49;98339.97;5391311;26;20056;-81
2022/06/19 08:00:05;;;;;;;5.70;2.20;;;;;;;30.72;29.28;98348.94;5371078;26;20106;-82
2022/06/19 08:02:32;;;;;;;5.53;2.80;;;;;;;30.45;29.77;98350.41;5391533;26;20055;-81
2022/06/19 08:04:59;;;;;;;3.65;2.30;;;;;;;30.49;30.56;98335.72;5391244;26;20052;-81
2022/06/19 08:07:26;;;;;;;4.25;2.33;;;;;;;30.70;29.62;98330.47;5390948;26;20190;-81
2022/06/19 08:09:53;;;;;;;6.50;2.83;;;;;;;30.78;30.09;98330.38;5391326;26;20100;-81
2022/06/19 08:12:20;;;;;;;6.72;2.58;;;;;;;30.69;31.14;98339.47;5391421;26;20102;-82
2022/06/19 08:14:47;;;;;;;5.20;2.45;;;;;;;30.94;30.55;98331.97;5391045;26;20111;-82
2022/06/19 08:17:14;;;;;;;6.00;2.60;;;;;;;31.07;29.70;98331.31;5391657;26;20119;-81
2022/06/19 08:19:42;;;;;;;6.78;2.58;;;;;;;30.43;30.68;98328.47;5391140;26;20107;-81
2022/06/19 08:22:09;;;;;;;5.57;2.60;;;;;;;30.72;29.46;98323.13;5371017;26;20114;-81
2022/06/19 08:24:36;;;;;;;5.55;2.45;;;;;;;31.25;29.42;98323.72;5391478;26;20327;-80
2022/06/19 08:27:06;;;;;;;5.45;2.30;;;;;;;31.17;30.34;98331.84;5391029;26;20436;-81
2022/06/19 08:29:34;;;;;;;5.97;2.60;;;;;;;31.58;28.89;98331.19;5390871;26;20123;-81
2022/06/19 08:32:01;;;;;;;5.15;2.33;;;;;;;32.02;29.74;98330.16;5391363;26;20070;-80
2022/06/19 08:34:29;;;;;;;5.35;2.42;;;;;;;32.34;28.36;98328.72;5391315;26;20128;-82
2022/06/19 08:36:57;;;;;;;4.20;2.50;;;;;;;31.54;29.12;98322.75;5390873;26;20068;-81
2022/06/19 08:39:24;;;;;;;5.12;2.30;;;;;;;31.80;28.48;98327.53;5391000;26;20065;-81
2022/06/19 08:42:22;;;;;;;3.62;2.30;;;;;;;31.71;29.49;98339.31;5391456;26;20054;-81
2022/06/19 08:45:22;;;;;;;5.45;2.50;;;;;;;31.49;30.37;98332.37;5391165;26;20060;-81
2022/06/19 08:48:18;;;;;;;4.95;2.15;;;;;;;31.45;29.65;98328.41;5370235;26;20115;-81
2022/06/19 08:50:59;;;;;;;4.53;2.40;;;;;;;31.13;29.04;98325.22;5370924;26;20059;-81
2022/06/19 08:53:30;;;;;;;4.57;2.35;;;;;;;31.60;29.59;98329.19;5371441;26;20057;-80
2022/06/19 08:56:05;;;;;;;6.45;2.60;;;;;;;31.73;27.86;98328.47;5394489;26;20127;-80
2022/06/19 08:58:55;;;;;;;5.97;2.60;;;;;;;32.13;28.24;98321.59;5413691;26;20068;-80
2022/06/19 09:02:03;;;;;;;4.47;2.40;;;;;;;31.32;28.86;98318.47;5370771;26;20061;-80
2022/06/19 09:07:37;;;;;;;4.93;2.55;;;;;;;31.47;29.07;98323.72;5299112;27;20065;-81
2022/06/19 09:10:21;;;;;;;7.90;2.40;;;;;;;31.74;27.61;98324.75;5361538;26;20065;-80
2022/06/19 09:12:52;;;;;;;8.00;2.50;;;;;;;31.53;29.50;98315.78;5391321;26;20060;-80
2022/06/19 09:15:49;;;;;;;7.80;3.20;;;;;;;31.57;29.71;98324.22;5389422;26;20337;-80
2022/06/19 09:18:22;;;;;;;4.70;2.50;;;;;;;31.16;30.13;98314.19;5398800;26;20060;-81
2022/06/19 09:21:09;;;;;;;6.60;2.25;;;;;;;30.98;28.32;98311.94;5413930;26;20059;-81
2022/06/19 09:23:52;;;;;;;6.37;2.40;;;;;;;31.41;29.73;98313.81;5414070;26;20057;-81
2022/06/19 09:26:46;;;;;;;4.80;2.28;;;;;;;31.40;28.74;98320.19;5400687;26;20545;-80
2022/06/19 09:29:32;;;;;;;5.82;2.30;;;;;;;31.61;27.56;98326.31;5390946;26;20770;-80
2022/06/19 09:32:17;;;;;;;4.05;2.53;;;;;;;31.65;27.86;98319.56;5370780;26;20059;-80
2022/06/19 09:34:47;;;;;;;6.80;2.40;;;;;;;31.48;27.99;98326.22;5391164;26;20115;-81
2022/06/19 09:37:19;;;;;;;6.93;2.67;;;;;;;31.33;28.27;98322.78;5391010;26;20661;-80
2022/06/19 09:39:50;;;;;;;5.80;2.40;;;;;;;31.30;29.14;98318.66;5391543;26;20079;-80
2022/06/19 09:42:23;;;;;;;5.43;2.40;;;;;;;32.12;27.14;98320.75;5371964;26;20063;-81
2022/06/19 09:45:04;;;;;;;5.00;2.45;;;;;;;31.78;27.41;98324.19;5372096;26;20130;-80
2022/06/19 09:47:50;;;;;;;7.32;2.47;;;;;;;31.95;27.43;98322.09;5391685;26;20107;-80
2022/06/19 09:50:49;;;;;;;5.05;2.42;;;;;;;30.92;29.12;98306.53;5391992;26;20063;-80
2022/06/19 09:53:32;;;;;;;5.70;2.80;;;;;;;30.88;29.12;98302.63;5391752;26;20123;-80
2022/06/19 09:56:38;;;;;;;3.55;2.25;;;;;;;31.32;28.76;98305.12;5374918;26;20064;-81
2022/06/19 09:59:20;;;;;;;7.43;2.70;;;;;;;31.12;28.34;98285.44;5371752;26;20123;-81
2022/06/19 10:01:56;;;;;;;7.03;2.17;;;;;;;31.40;29.36;98296.19;5392114;26;20099;-81
2022/06/19 10:04:44;;;;;;;6.07;2.60;;;;;;;31.71;29.37;98307.31;5392361;26;20406;-81
2022/06/19 10:07:22;;;;;;;5.35;2.10;;;;;;;31.47;28.86;98311.19;5371910;26;20056;-81
2022/06/19 10:09:54;;;;;;;5.30;2.50;;;;;;;32.26;27.93;98308.31;5392148;26;20052;-81
2022/06/19 10:12:51;;;;;;;6.28;2.33;;;;;;;32.18;28.29;98293.25;5371916;26;20475;-80
2022/06/19 10:15:25;;;;;;;4.82;2.25;;;;;;;31.74;28.51;98300.75;5367612;26;20118;-81
2022/06/19 10:18:13;;;;;;;4.28;2.22;;;;;;;32.36;27.56;98286.63;5371727;26;20056;-80
2022/06/19 10:20:50;;;;;;;3.62;2.15;;;;;;;32.17;29.19;98291.63;5371614;26;20059;-80
2022/06/19 10:23:22;;;;;;;5.10;2.30;;;;;;;33.32;27.27;98273.94;5391753;26;20079;-81
2022/06/19 10:26:04;;;;;;;8.13;2.25;;;;;;;32.97;26.86;98267.94;5371753;26;20119;-81
2022/06/19 10:28:46;;;;;;;4.10;2.30;;;;;;;32.44;27.64;98263.25;5391412;26;20056;-81
2022/06/19 10:31:29;;;;;;;5.10;2.35;;;;;;;32.49;28.06;98259.97;5391914;26;20056;-81
2022/06/19 10:34:02;;;;;;;5.00;2.17;;;;;;;32.44;28.67;98257.91;5391938;26;20327;-80
2022/06/19 10:37:07;;;;;;;3.97;2.33;;;;;;;32.72;27.30;98257.78;5345084;26;20554;-81
2022/06/19 10:39:45;;;;;;;4.95;2.30;;;;;;;31.84;28.88;98267.41;5346356;26;20056;-80
2022/06/19 10:42:37;;;;;;;4.45;2.25;;;;;;;31.33;29.26;98250.78;5346312;26;20401;-81
2022/06/19 10:45:40;;;;;;;5.15;2.12;;;;;;;31.95;27.58;98261.53;5346732;26;20074;-82
2022/06/19 10:48:39;;;;;;;4.90;2.20;;;;;;;31.70;27.80;98265.66;5304684;27;20127;-80
2022/06/19 10:51:07;;;;;;;4.45;2.25;;;;;;;32.10;27.11;98258.72;5303117;27;20108;-81
2022/06/19 10:53:52;;;;;;;3.97;2.17;;;;;;;32.03;27.02;98254.41;5324474;27;20446;-80
2022/06/19 10:56:28;;;;;;;6.32;2.20;;;;;;;31.34;28.16;98244.44;5358670;26;20461;-81
2022/06/19 10:58:56;;;;;;;3.90;2.12;;;;;;;32.15;27.67;98255.47;5414229;26;20123;-80
2022/06/19 11:04:31;;;;;;;4.15;2.15;;;;;;;31.74;28.36;98236.75;5414095;26;20530;-80
2022/06/19 11:07:03;;;;;;;4.28;2.17;;;;;;;31.51;26.65;98237.00;5378499;26;20080;-80
2022/06/19 11:09:42;;;;;;;6.18;2.40;;;;;;;31.64;27.23;98240.56;5391137;26;20074;-80
2022/06/19 11:12:21;;;;;;;7.12;2.37;;;;;;;31.72;27.81;98233.44;5371684;26;20366;-80
2022/06/19 11:14:53;;;;;;;5.28;2.45;;;;;;;32.07;27.16;98231.63;5371687;26;20127;-80
2022/06/19 11:17:33;;;;;;;5.62;2.15;;;;;;;32.55;27.66;98224.44;5403108;26;20123;-81
2022/06/19 11:20:21;;;;;;;3.95;2.33;;;;;;;33.13;27.87;98222.09;5394109;26;20118;-80
2022/06/19 11:22:49;;;;;;;4.10;2.17;;;;;;;32.50;26.67;98226.88;5414439;26;20115;-81
2022/06/19 11:25:16;;;;;;;4.95;2.25;;;;;;;32.12;27.51;98224.69;5414021;26;20551;-80
2022/06/19 11:28:12;;;;;;;4.53;2.10;;;;;;;31.94;27.75;98225.19;5392096;26;20056;-80
2022/06/19 11:30:48;;;;;;;6.22;2.58;;;;;;;32.34;27.83;98219.25;5376865;26;20123;-80
2022/06/19 11:33:18;;;;;;;4.18;2.22;;;;;;;31.96;27.77;98225.00;5391781;26;20482;-81
2022/06/19 11:35:53;;;;;;;5.90;2.55;;;;;;;32.04;27.15;98200.00;5390709;26;20056;-81
2022/06/19 11:38:34;;;;;;;7.40;2.50;;;;;;;31.60;27.99;98214.50;5391167;26;20127;-81
2022/06/19 11:41:14;;;;;;;3.78;2.20;;;;;;;32.26;27.30;98206.03;5391660;26;20066;-81
2022/06/19 11:43:41;;;;;;;5.57;2.30;;;;;;;32.80;26.23;98206.00;5391607;26;20072;-80
2022/06/19 11:46:17;;;;;;;3.80;2.28;;;;;;;32.72;27.93;98195.50;5391065;26;20070;-80
2022/06/19 11:48:44;;;;;;;4.15;2.10;;;;;;;32.52;27.61;98208.81;5391388;26;20112;-80
2022/06/19 11:51:20;;;;;;;3.65;2.20;;;;;;;32.74;27.55;98191.59;5391598;26;20115;-80
2022/06/19 11:53:54;;;;;;;;;;;;;;;32.77;26.77;98185.03;5371625;26;20055;-81
2022/06/19 11:56:32;;;;;;;4.90;2.30;;;;;;;32.81;26.49;98196.97;5391610;26;19995;-81
2022/06/19 11:59:16;;;;;;;4.82;2.05;;;;;;;32.98;24.80;98182.22;5390835;26;20127;-80
2022/06/19 12:01:44;;;;;;;6.93;2.20;;;;;;;33.55;26.24;98180.75;5391177;26;20070;-80
2022/06/19 12:04:20;;;;;;;5.82;2.20;;;;;;;32.05;26.24;98175.78;5371417;26;20130;-81
2022/06/19 12:06:51;;;;;;;4.10;2.08;;;;;;;31.43;28.32;98186.47;5390903;26;20048;-80